createdAt,value
2023-03-12T00:02:11.728Z,6.50
2023-03-12T00:04:38.874Z,5.30
2023-03-12T00:07:06.812Z,5.45
2023-03-12T00:09:38.888Z,6.43
2023-03-12T00:12:06.945Z,5.68
2023-03-12T00:14:34.240Z,5.68
2023-03-12T00:17:01.321Z,5.95
2023-03-12T00:19:28.542Z,5.43
2023-03-12T00:21:55.583Z,5.65
2023-03-12T00:24:22.600Z,6.28
2023-03-12T00:26:49.585Z,5.13
2023-03-12T00:29:16.628Z,5.70
2023-03-12T00:31:43.758Z,5.30
2023-03-12T00:34:11.266Z,5.70
2023-03-12T00:36:38.456Z,6.82
2023-03-12T00:39:05.458Z,6.53
2023-03-12T00:41:32.441Z,5.45
2023-03-12T00:43:59.554Z,5.15
2023-03-12T00:46:27.082Z,5.85
2023-03-12T00:48:54.179Z,6.20
2023-03-12T00:51:21.269Z,6.35
2023-03-12T00:53:48.373Z,4.88
2023-03-12T00:56:15.998Z,7.65
2023-03-12T00:58:43.442Z,5.97
2023-03-12T01:01:11.312Z,6.00
2023-03-12T01:03:38.769Z,5.82
2023-03-12T01:06:06.608Z,5.68
2023-03-12T01:08:34.127Z,5.55
2023-03-12T01:11:01.230Z,6.63
2023-03-12T01:13:28.483Z,4.45
2023-03-12T01:15:55.877Z,5.53
2023-03-12T01:18:22.966Z,4.10
2023-03-12T01:20:50.021Z,4.32
2023-03-12T01:23:17.168Z,5.88
2023-03-12T01:25:44.176Z,5.78
2023-03-12T01:28:11.259Z,7.20
2023-03-12T01:30:38.572Z,5.60
2023-03-12T01:33:05.566Z,9.57
2023-03-12T01:35:37.228Z,7.65
2023-03-12T01:38:04.481Z,8.68
2023-03-12T01:40:34.927Z,10.07
2023-03-12T01:43:25.323Z,10.57
2023-03-12T01:46:11.065Z,10.73
2023-03-12T01:48:45.417Z,10.68
2023-03-12T01:51:16.191Z,11.38
2023-03-12T01:53:47.352Z,11.50
2023-03-12T01:56:17.419Z,10.73
2023-03-12T01:58:52.192Z,13.38
2023-03-12T02:01:20.384Z,15.07
2023-03-12T02:03:50.543Z,12.02
2023-03-12T02:06:23.633Z,10.57
2023-03-12T02:08:51.419Z,11.20
2023-03-12T02:11:18.408Z,13.15
2023-03-12T02:13:45.516Z,14.93
2023-03-12T02:16:13.511Z,15.55
2023-03-12T02:18:40.625Z,16.05
2023-03-12T02:21:19.877Z,15.75
2023-03-12T02:24:09.907Z,11.20
2023-03-12T02:26:39.335Z,17.10
2023-03-12T02:29:08.842Z,14.13
2023-03-12T02:31:43.172Z,16.17
2023-03-12T02:34:11.002Z,10.98
2023-03-12T02:36:38.140Z,15.70
2023-03-12T02:39:06.048Z,13.05
2023-03-12T02:41:38.124Z,14.60
2023-03-12T02:44:08.032Z,16.10
2023-03-12T02:46:46.229Z,11.48
2023-03-12T02:49:14.319Z,14.23
2023-03-12T02:51:43.895Z,13.02
2023-03-12T02:54:12.319Z,17.55
2023-03-12T02:56:40.275Z,15.00
2023-03-12T02:59:09.590Z,14.50
2023-03-12T03:01:41.218Z,15.00
2023-03-12T03:04:09.677Z,18.35
2023-03-12T03:06:39.453Z,17.25
2023-03-12T03:09:06.528Z,13.43
2023-03-12T03:11:33.666Z,14.32
2023-03-12T03:14:04.491Z,24.27
2023-03-12T03:16:32.058Z,17.02
2023-03-12T03:18:59.432Z,17.50
2023-03-12T03:21:26.863Z,13.57
2023-03-12T03:23:53.926Z,15.93
2023-03-12T03:26:23.583Z,12.20
2023-03-12T03:28:51.275Z,11.05
2023-03-12T03:31:18.694Z,10.85
2023-03-12T03:33:46.473Z,11.10
2023-03-12T03:36:15.074Z,15.75
2023-03-12T03:38:53.798Z,12.43
2023-03-12T03:41:21.641Z,14.55
2023-03-12T03:43:49.098Z,17.08
2023-03-12T03:46:19.181Z,11.20
2023-03-12T03:48:51.198Z,12.32
2023-03-12T03:51:18.404Z,12.10
2023-03-12T03:53:48.658Z,12.40
2023-03-12T03:56:16.475Z,13.93
2023-03-12T03:58:49.458Z,11.98
2023-03-12T04:01:19.029Z,15.60
2023-03-12T04:03:47.229Z,14.30
2023-03-12T04:06:14.268Z,15.60
2023-03-12T04:08:41.937Z,14.48
2023-03-12T04:11:17.086Z,12.02
2023-03-12T04:13:44.765Z,15.20
2023-03-12T04:16:14.622Z,16.88
2023-03-12T04:18:42.208Z,16.05
2023-03-12T04:21:11.358Z,14.63
2023-03-12T04:23:39.737Z,15.07
2023-03-12T04:26:08.456Z,20.80
2023-03-12T04:28:37.249Z,14.93
2023-03-12T04:31:08.061Z,12.50
2023-03-12T04:33:40.858Z,20.33
2023-03-12T04:36:09.679Z,18.20
2023-03-12T04:38:40.355Z,17.33
2023-03-12T04:41:11.380Z,16.55
2023-03-12T04:43:41.993Z,12.45
2023-03-12T04:46:09.591Z,13.45
2023-03-12T04:48:37.908Z,16.40
2023-03-12T04:51:06.651Z,13.48
2023-03-12T04:53:34.023Z,13.57
2023-03-12T04:56:02.538Z,17.67
2023-03-12T04:58:30.821Z,21.00
2023-03-12T05:00:58.331Z,15.38
2023-03-12T05:03:25.580Z,17.60
2023-03-12T05:05:52.875Z,16.73
2023-03-12T05:08:20.042Z,18.13
2023-03-12T05:10:47.265Z,15.90
2023-03-12T05:13:22.509Z,24.52
2023-03-12T05:15:56.519Z,20.80
2023-03-12T05:18:23.763Z,21.27
2023-03-12T05:21:02.172Z,18.90
2023-03-12T05:23:30.734Z,21.30
2023-03-12T05:25:58.748Z,16.92
2023-03-12T05:28:28.668Z,20.25
2023-03-12T05:31:00.201Z,18.92
2023-03-12T05:33:29.250Z,20.30
2023-03-12T05:35:58.861Z,17.40
2023-03-12T05:38:26.533Z,22.85
2023-03-12T05:40:55.536Z,20.83
2023-03-12T05:43:23.391Z,15.73
2023-03-12T05:45:51.671Z,17.42
2023-03-12T05:48:19.572Z,17.08
2023-03-12T05:50:46.689Z,21.17
2023-03-12T05:53:13.862Z,20.80
2023-03-12T05:55:41.920Z,20.33
2023-03-12T05:58:09.790Z,20.02
2023-03-12T06:00:39.042Z,19.13
2023-03-12T06:03:08.854Z,22.77
2023-03-12T06:05:37.160Z,20.85
2023-03-12T06:08:05.833Z,26.25
2023-03-12T06:10:33.028Z,20.42
2023-03-12T06:13:00.121Z,23.60
2023-03-12T06:15:27.176Z,23.30
2023-03-12T06:17:54.240Z,21.90
2023-03-12T06:20:21.463Z,20.70
2023-03-12T06:22:48.833Z,26.17
2023-03-12T06:25:15.952Z,29.40
2023-03-12T06:27:43.074Z,23.70
2023-03-12T06:30:10.704Z,28.95
2023-03-12T06:32:37.752Z,28.77
2023-03-12T06:35:05.995Z,31.25
2023-03-12T06:37:33.073Z,25.13
2023-03-12T06:40:00.122Z,31.13
2023-03-12T06:42:27.162Z,26.40
2023-03-12T06:44:54.157Z,26.90
2023-03-12T06:47:21.450Z,35.15
2023-03-12T06:49:48.471Z,38.33
2023-03-12T06:52:15.559Z,28.92
2023-03-12T06:54:42.677Z,30.23
2023-03-12T06:57:09.752Z,24.73
2023-03-12T06:59:37.118Z,29.92
2023-03-12T07:02:04.195Z,33.10
2023-03-12T07:04:31.246Z,27.95
2023-03-12T07:06:58.282Z,28.30
2023-03-12T07:09:25.417Z,30.88
2023-03-12T07:11:52.428Z,27.98
2023-03-12T07:14:21.389Z,31.42
2023-03-12T07:16:48.544Z,42.85
2023-03-12T07:19:15.657Z,34.50
2023-03-12T07:21:42.679Z,31.75
2023-03-12T07:24:10.088Z,37.92
2023-03-12T07:26:37.138Z,30.50
2023-03-12T07:29:05.307Z,30.15
2023-03-12T07:31:32.460Z,25.10
2023-03-12T07:33:59.581Z,24.20
2023-03-12T07:36:26.910Z,30.77
2023-03-12T07:38:54.034Z,28.35
2023-03-12T07:41:21.580Z,28.88
2023-03-12T07:43:48.636Z,28.38
2023-03-12T07:46:16.045Z,26.50
2023-03-12T07:48:44.407Z,29.90
2023-03-12T07:51:11.862Z,25.17
2023-03-12T07:53:38.884Z,26.27
2023-03-12T07:56:06.419Z,26.85
2023-03-12T07:58:36.597Z,22.95
2023-03-12T08:01:03.940Z,23.73
2023-03-12T08:03:31.160Z,21.42
2023-03-12T08:06:00.580Z,21.42
2023-03-12T08:08:28.875Z,23.77
2023-03-12T08:10:55.889Z,21.85
2023-03-12T08:13:24.508Z,19.30
2023-03-12T08:15:54.441Z,23.50
2023-03-12T08:18:22.225Z,23.30
2023-03-12T08:20:53.564Z,26.08
2023-03-12T08:23:21.500Z,23.83
2023-03-12T08:25:49.830Z,21.13
2023-03-12T08:28:18.329Z,22.08
2023-03-12T08:30:50.778Z,19.55
2023-03-12T08:33:18.112Z,28.05
2023-03-12T08:35:45.318Z,23.02
2023-03-12T08:38:12.368Z,25.38
2023-03-12T08:40:39.628Z,19.60
2023-03-12T08:43:07.742Z,18.65
2023-03-12T08:45:38.029Z,20.10
2023-03-12T08:48:06.560Z,20.00
2023-03-12T08:50:33.715Z,19.88
2023-03-12T08:53:01.381Z,19.65
2023-03-12T08:55:28.473Z,19.33
2023-03-12T08:57:56.587Z,19.83
2023-03-12T09:00:23.608Z,18.25
2023-03-12T09:02:52.295Z,18.00
2023-03-12T09:05:19.763Z,17.00
2023-03-12T09:07:46.882Z,17.77
2023-03-12T09:10:13.936Z,14.90
2023-03-12T09:12:41.021Z,17.58
2023-03-12T09:15:10.042Z,13.23
2023-03-12T09:17:37.776Z,12.07
2023-03-12T09:20:09.015Z,14.55
2023-03-12T09:22:37.336Z,14.90
2023-03-12T09:25:05.783Z,15.65
2023-03-12T09:27:37.388Z,12.00
2023-03-12T09:30:06.747Z,12.63
2023-03-12T09:32:34.159Z,12.85
2023-03-12T09:35:01.380Z,12.52
2023-03-12T09:37:28.619Z,10.43
2023-03-12T09:39:55.705Z,10.65
2023-03-12T09:42:33.090Z,9.57
2023-03-12T09:45:03.908Z,9.55
2023-03-12T09:47:33.828Z,8.57
2023-03-12T09:50:11.323Z,11.52
2023-03-12T09:52:51.528Z,7.72
2023-03-12T09:55:22.735Z,9.52
2023-03-12T09:57:51.613Z,7.60
2023-03-12T10:00:24.729Z,7.03
2023-03-12T10:02:55.461Z,7.32
2023-03-12T10:05:51.084Z,10.68
2023-03-12T10:08:39.847Z,7.38
2023-03-12T10:11:09.789Z,6.10
2023-03-12T10:13:42.665Z,6.28
2023-03-12T10:17:03.198Z,6.90
2023-03-12T10:22:19.793Z,5.30
2023-03-12T10:25:00.636Z,5.45
2023-03-12T10:27:30.498Z,6.43
2023-03-12T10:29:58.374Z,6.00
2023-03-12T10:32:37.740Z,6.80
2023-03-12T10:35:22.238Z,6.75
2023-03-12T10:37:54.290Z,6.70
2023-03-12T10:40:28.489Z,7.13
2023-03-12T10:42:56.018Z,8.50
2023-03-12T10:45:34.852Z,6.70
2023-03-12T10:48:18.512Z,6.90
2023-03-12T10:51:20.358Z,7.93
2023-03-12T10:53:50.166Z,6.60
2023-03-12T10:56:19.563Z,6.68
2023-03-12T10:58:53.165Z,8.68
2023-03-12T11:01:26.531Z,8.52
2023-03-12T11:04:09.769Z,6.47
2023-03-12T11:06:36.813Z,10.43
2023-03-12T11:09:16.639Z,8.38
2023-03-12T11:11:47.764Z,9.02
2023-03-12T11:14:20.082Z,8.52
2023-03-12T11:16:47.127Z,7.75
2023-03-12T11:19:26.573Z,7.30
2023-03-12T11:22:04.780Z,9.10
2023-03-12T11:24:32.050Z,6.20
2023-03-12T11:27:10.953Z,7.10
2023-03-12T11:29:47.323Z,6.40
2023-03-12T11:32:37.526Z,7.85
2023-03-12T11:35:10.909Z,7.47
2023-03-12T11:38:16.298Z,7.93
2023-03-12T11:41:07.592Z,6.30
2023-03-12T11:43:44.444Z,7.30
2023-03-12T11:46:36.339Z,6.93
2023-03-12T11:49:09.156Z,6.97
2023-03-12T11:51:54.722Z,6.70
2023-03-12T11:54:49.665Z,8.05
2023-03-12T11:57:33.914Z,6.13
2023-03-12T12:00:17.482Z,6.97
2023-03-12T12:03:12.555Z,6.60
2023-03-12T12:06:02.279Z,5.80
2023-03-12T12:09:10.533Z,6.03
2023-03-12T12:12:22.070Z,5.18
2023-03-12T12:15:28.154Z,3.35
2023-03-12T12:18:26.061Z,2.92
2023-03-12T12:21:11.654Z,2.30
2023-03-12T12:23:54.819Z,2.63
2023-03-12T12:26:36.878Z,2.42
2023-03-12T12:29:09.822Z,4.30
2023-03-12T12:31:48.938Z,1.35
2023-03-12T12:34:53.730Z,2.00
2023-03-12T12:37:54.864Z,1.45
2023-03-12T12:40:38.261Z,2.03
2023-03-12T12:43:35.543Z,2.00
2023-03-12T12:46:06.578Z,2.03
2023-03-12T12:48:48.911Z,1.73
2023-03-12T12:51:19.832Z,1.90
2023-03-12T12:54:02.985Z,3.22
2023-03-12T12:56:47.158Z,1.88
2023-03-12T12:59:32.844Z,2.55
2023-03-12T13:02:02.748Z,2.08
2023-03-12T13:04:37.891Z,2.60
2023-03-12T13:07:14.029Z,1.63
2023-03-12T13:09:47.181Z,2.23
2023-03-12T13:12:16.462Z,2.78
2023-03-12T13:14:45.148Z,2.35
2023-03-12T13:17:50.901Z,3.15
2023-03-12T13:20:21.087Z,2.80
2023-03-12T13:23:09.519Z,2.15
2023-03-12T13:25:59.118Z,2.45
2023-03-12T13:28:26.581Z,1.38
2023-03-12T13:30:54.517Z,2.60
2023-03-12T13:33:48.654Z,2.83
2023-03-12T13:36:15.727Z,2.38
2023-03-12T13:39:17.656Z,3.75
2023-03-12T13:41:55.077Z,1.95
2023-03-12T13:44:29.016Z,2.72
2023-03-12T13:47:03.556Z,3.65
2023-03-12T13:49:43.669Z,1.92
2023-03-12T13:52:19.551Z,2.85
2023-03-12T13:54:59.748Z,3.65
2023-03-12T13:57:38.767Z,2.38
2023-03-12T14:00:11.914Z,2.25
2023-03-12T14:02:49.214Z,2.88
2023-03-12T14:05:17.165Z,2.90
2023-03-12T14:07:50.129Z,2.33
2023-03-12T14:10:35.894Z,2.42
2023-03-12T14:13:21.807Z,2.25
2023-03-12T14:16:03.474Z,3.65
2023-03-12T14:18:34.600Z,2.30
2023-03-12T14:21:10.716Z,2.60
2023-03-12T14:23:41.021Z,2.72
2023-03-12T14:26:09.731Z,2.33
2023-03-12T14:28:41.925Z,2.92
2023-03-12T14:31:15.007Z,2.78
2023-03-12T14:33:57.102Z,2.25
2023-03-12T14:36:35.305Z,3.22
2023-03-12T14:39:20.864Z,3.15
2023-03-12T14:41:59.165Z,2.33
2023-03-12T14:44:28.836Z,3.55
2023-03-12T14:47:07.693Z,3.08
2023-03-12T14:49:41.097Z,3.10
2023-03-12T14:52:11.220Z,4.03
2023-03-12T14:54:39.861Z,2.38
2023-03-12T14:57:15.660Z,3.75
2023-03-12T14:59:53.349Z,3.88
2023-03-12T15:02:20.905Z,4.00
2023-03-12T15:04:50.129Z,3.38
2023-03-12T15:07:22.161Z,2.65
2023-03-12T15:09:52.268Z,3.50
2023-03-12T15:12:26.083Z,2.85
2023-03-12T15:15:03.531Z,2.63
2023-03-12T15:17:32.072Z,3.00
2023-03-12T15:20:00.487Z,2.60
2023-03-12T15:22:28.557Z,2.67
2023-03-12T15:24:55.688Z,4.03
2023-03-12T15:27:25.869Z,3.05
2023-03-12T15:29:53.138Z,3.47
2023-03-12T15:32:24.947Z,2.58
2023-03-12T15:34:53.997Z,3.42
2023-03-12T15:37:24.760Z,3.90
2023-03-12T15:39:53.450Z,3.63
2023-03-12T15:42:24.212Z,3.60
2023-03-12T15:45:03.377Z,3.63
2023-03-12T15:47:34.097Z,2.53
2023-03-12T15:50:04.716Z,3.70
2023-03-12T15:52:36.506Z,3.57
2023-03-12T15:55:12.333Z,3.93
2023-03-12T15:57:46.605Z,3.80
2023-03-12T16:00:18.469Z,4.57
2023-03-12T16:02:56.377Z,3.33
2023-03-12T16:05:27.391Z,3.63
2023-03-12T16:07:54.926Z,7.83
2023-03-12T16:10:25.509Z,3.80
2023-03-12T16:12:59.929Z,3.63
2023-03-12T16:15:32.705Z,5.63
2023-03-12T16:18:00.124Z,3.67
2023-03-12T16:20:27.716Z,4.20
2023-03-12T16:22:55.028Z,4.93
2023-03-12T16:25:23.280Z,4.73
2023-03-12T16:27:53.259Z,4.03
2023-03-12T16:30:28.540Z,4.40
2023-03-12T16:32:56.719Z,5.03
2023-03-12T16:35:23.937Z,4.90
2023-03-12T16:37:50.970Z,4.50
2023-03-12T16:40:30.843Z,4.80
2023-03-12T16:43:03.651Z,4.73
2023-03-12T16:45:33.966Z,5.00
2023-03-12T16:48:03.875Z,5.00
2023-03-12T16:50:31.297Z,6.70
2023-03-12T16:52:59.780Z,6.13
2023-03-12T16:55:45.151Z,5.13
2023-03-12T16:58:14.309Z,6.90
2023-03-12T17:00:41.650Z,6.03
2023-03-12T17:03:18.421Z,5.10
2023-03-12T17:05:46.106Z,5.22
2023-03-12T17:08:14.611Z,5.53
2023-03-12T17:10:41.880Z,5.87
2023-03-12T17:13:19.036Z,5.10
2023-03-12T17:15:46.513Z,4.73
2023-03-12T17:18:13.861Z,5.77
2023-03-12T17:20:41.180Z,4.57
2023-03-12T17:23:09.077Z,4.77
2023-03-12T17:25:38.840Z,5.23
2023-03-12T17:28:07.169Z,5.27
2023-03-12T17:30:35.238Z,6.27
2023-03-12T17:33:14.022Z,8.20
2023-03-12T17:35:41.759Z,5.70
2023-03-12T17:38:09.656Z,7.40
2023-03-12T17:40:41.507Z,7.57
2023-03-12T17:43:08.744Z,6.83
2023-03-12T17:45:37.179Z,7.33
2023-03-12T17:48:04.400Z,6.47
2023-03-12T17:50:32.146Z,6.90
2023-03-12T17:52:59.230Z,7.77
2023-03-12T17:55:26.294Z,6.57
2023-03-12T17:57:53.400Z,6.73
2023-03-12T18:00:22.160Z,6.13
2023-03-12T18:02:49.588Z,6.30
2023-03-12T18:05:16.771Z,6.70
2023-03-12T18:07:43.948Z,6.57
2023-03-12T18:10:11.730Z,6.40
2023-03-12T18:12:40.671Z,6.40
2023-03-12T18:15:09.674Z,5.80
2023-03-12T18:17:36.704Z,6.03
2023-03-12T18:20:16.720Z,5.53
2023-03-12T18:22:46.635Z,6.17
2023-03-12T18:25:13.739Z,5.93
2023-03-12T18:27:40.845Z,5.27
2023-03-12T18:30:11.615Z,6.10
2023-03-12T18:32:39.503Z,6.60
2023-03-12T18:35:08.428Z,7.87
2023-03-12T18:37:35.468Z,6.57
2023-03-12T18:40:02.490Z,6.13
2023-03-12T18:42:30.673Z,6.00
2023-03-12T18:44:57.733Z,6.17
2023-03-12T18:47:24.891Z,5.47
2023-03-12T18:49:55.187Z,6.27
2023-03-12T18:52:22.985Z,4.63
2023-03-12T18:54:50.057Z,5.60
2023-03-12T18:57:17.168Z,5.50
2023-03-12T18:59:46.171Z,4.10
2023-03-12T19:02:13.620Z,4.27
2023-03-12T19:04:40.747Z,4.90
2023-03-12T19:07:08.712Z,5.33
2023-03-12T19:09:35.805Z,4.47
2023-03-12T19:12:03.168Z,3.67
2023-03-12T19:14:30.900Z,4.63
2023-03-12T19:16:58.109Z,4.53
2023-03-12T19:19:25.155Z,4.87
2023-03-12T19:21:52.185Z,5.13
2023-03-12T19:24:19.210Z,4.67
2023-03-12T19:26:46.287Z,4.70
2023-03-12T19:29:15.307Z,3.73
2023-03-12T19:31:43.132Z,4.57
2023-03-12T19:34:10.163Z,4.40
2023-03-12T19:36:37.192Z,3.93
2023-03-12T19:39:11.967Z,3.77
2023-03-12T19:41:46.066Z,4.40
2023-03-12T19:44:13.116Z,4.37
2023-03-12T19:46:43.148Z,3.67
2023-03-12T19:49:10.361Z,4.17
2023-03-12T19:51:40.274Z,5.13
2023-03-12T19:54:08.099Z,3.80
2023-03-12T19:56:35.232Z,5.53
2023-03-12T19:59:03.474Z,4.77
2023-03-12T20:01:30.508Z,4.73
2023-03-12T20:03:57.604Z,4.27
2023-03-12T20:06:24.671Z,3.93
2023-03-12T20:08:51.720Z,5.37
2023-03-12T20:11:19.933Z,3.97
2023-03-12T20:13:46.920Z,6.00
2023-03-12T20:16:14.099Z,4.17
2023-03-12T20:18:41.193Z,4.13
2023-03-12T20:21:08.220Z,4.20
2023-03-12T20:23:35.324Z,3.90
2023-03-12T20:26:02.667Z,5.30
2023-03-12T20:28:29.736Z,4.53
2023-03-12T20:30:56.930Z,4.30
2023-03-12T20:33:24.027Z,4.17
2023-03-12T20:35:51.409Z,3.90
2023-03-12T20:38:18.494Z,4.50
2023-03-12T20:40:46.434Z,4.43
2023-03-12T20:43:13.474Z,4.53
2023-03-12T20:45:40.606Z,4.10
2023-03-12T20:48:07.786Z,5.13
2023-03-12T20:50:38.119Z,4.20
2023-03-12T20:53:05.198Z,5.17
2023-03-12T20:55:32.273Z,4.30
2023-03-12T20:57:59.469Z,5.43
2023-03-12T21:00:26.559Z,5.27
2023-03-12T21:02:53.648Z,4.50
2023-03-12T21:05:21.826Z,5.57
2023-03-12T21:07:50.332Z,5.20
2023-03-12T21:10:17.540Z,4.13
2023-03-12T21:12:44.637Z,5.67
2023-03-12T21:15:12.698Z,4.90
2023-03-12T21:17:40.962Z,4.10
2023-03-12T21:20:17.204Z,4.50
2023-03-12T21:22:46.765Z,5.05
2023-03-12T21:25:13.886Z,4.57
2023-03-12T21:27:50.270Z,3.53
2023-03-12T21:30:18.261Z,3.80
2023-03-12T21:32:45.403Z,4.10
2023-03-12T21:35:12.566Z,4.50
2023-03-12T21:37:39.946Z,4.53
2023-03-12T21:40:09.197Z,5.33
2023-03-12T21:42:36.278Z,4.53
2023-03-12T21:45:03.636Z,5.30
2023-03-12T21:47:30.997Z,3.80
2023-03-12T21:49:58.025Z,3.87
2023-03-12T21:52:25.117Z,4.13
2023-03-12T21:54:52.078Z,4.17
2023-03-12T21:57:19.161Z,4.10
2023-03-12T21:59:46.171Z,3.40
2023-03-12T22:02:14.619Z,3.03
2023-03-12T22:04:41.678Z,4.03
2023-03-12T22:07:08.870Z,3.87
2023-03-12T22:09:35.910Z,4.10
2023-03-12T22:12:03.579Z,4.30
2023-03-12T22:14:30.621Z,3.40
2023-03-12T22:16:57.666Z,3.57
2023-03-12T22:19:24.739Z,3.50
2023-03-12T22:21:51.704Z,3.17
2023-03-12T22:24:18.719Z,3.30
2023-03-12T22:26:46.736Z,3.30
2023-03-12T22:29:13.856Z,3.33
2023-03-12T22:31:40.973Z,4.17
2023-03-12T22:34:08.060Z,3.83
2023-03-12T22:36:35.157Z,3.50
2023-03-12T22:39:02.339Z,4.23
2023-03-12T22:41:30.228Z,3.67
2023-03-12T22:44:03.067Z,3.83
2023-03-12T22:46:30.354Z,2.80
2023-03-12T22:49:00.045Z,3.20
2023-03-12T22:51:29.084Z,3.47
2023-03-12T22:53:56.393Z,4.47
2023-03-12T22:56:23.508Z,3.97
2023-03-12T22:58:50.779Z,2.70
2023-03-12T23:01:20.785Z,3.67
2023-03-12T23:03:48.878Z,3.57
2023-03-12T23:06:21.893Z,2.80
2023-03-12T23:08:49.824Z,3.03
2023-03-12T23:11:17.054Z,3.83
2023-03-12T23:13:45.940Z,4.23
2023-03-12T23:16:20.895Z,3.50
2023-03-12T23:18:48.898Z,3.77
2023-03-12T23:21:18.612Z,4.00
2023-03-12T23:23:45.966Z,4.27
2023-03-12T23:26:18.895Z,3.37
2023-03-12T23:28:47.450Z,4.17
2023-03-12T23:31:16.282Z,3.70
2023-03-12T23:33:43.735Z,3.90
2023-03-12T23:36:16.952Z,4.43
2023-03-12T23:38:44.571Z,3.07
2023-03-12T23:41:13.062Z,2.80
2023-03-12T23:43:40.173Z,4.00
2023-03-12T23:46:09.011Z,3.90
2023-03-12T23:48:38.006Z,3.00
2023-03-12T23:51:22.606Z,3.10
2023-03-12T23:53:51.724Z,2.67
2023-03-12T23:56:23.030Z,3.30
2023-03-12T23:58:51.023Z,2.97
